Tiempo atmosférico en la estación meteorológica de Abla, Almería (885 m.)



Fecha
DESCASC
Temp. máxima en grados centígrados (hora)
DESCASC
Temp. mínima en grados centígrados (hora)
DESCASC
Temp. media en grados centígrados
DESCASC
Racha de viento máxima en m/sg (hora)
DESCASC
Velocidad máxima media en intervalos de 10 minutos(hora)
DESCASC
Precipitaciones diarias en mm
DESCASC
Precipitaciones de 00:00 a 06:00 en mm
DESCASC
Precipitaciones de 06:00 a 12:00 en mm
DESCASC
Precipitaciones de 12:00 a 18:00 en mm
DESCASC
Precipitaciones de 18:00 a 24:00 en mm
DESCASC
20-09-2018 28.2 (14:50) 17.5 (07:20) 22.9 9.17 (16:40) 4.72 (13:50) -- -- -- -- --
19-09-2018 27.6 (13:20) 16.9 (07:50) 22.3 8.33 (13:50) 3.89 (13:40) -- -- -- -- --
18-09-2018 28.4 (13:00) 17.3 (02:40) 22.8 8.61 (16:50) 4.17 (16:50) -- -- -- -- --
17-09-2018 23.7 (15:00) 17.7 (08:30) 20.7 10 (15:20) 4.72 (16:00) -- -- -- -- --
16-09-2018 27.2 (16:00) 15 (00:00) 21.1 7.78 (16:50) 3.89 (17:00) -- -- -- -- --
15-09-2018 22.8 (14:50) 17.2 (00:00) 20 8.61 (15:10) 4.17 (15:30) -- -- -- -- --
14-09-2018 27.2 (15:00) 17.2 (00:00) 22.2 7.5 (13:10) 4.17 (13:20) -- -- -- -- --
13-09-2018 30 (15:10) 19.6 (00:00) 24.8 10 (15:20) 5 (15:50) -- -- -- -- --
12-09-2018 28.4 (15:30) 17.7 (00:00) 23.1 9.44 (18:30) 5 (18:30) -- -- -- -- --
11-09-2018 24 (18:10) 16.1 (00:00) 20.1 8.06 (12:20) 3.89 (12:50) -- -- -- -- --
10-09-2018 26.4 (14:30) 15.5 (00:00) 20.9 8.06 (13:30) 4.17 (12:10) -- -- -- -- --
09-09-2018 19.8 (18:10) 14.9 (00:00) 17.3 6.11 (14:20) 2.5 (23:20) -- -- -- -- --
08-09-2018 21.6 (12:10) 15.3 (00:00) 18.5 7.22 (09:30) 3.33 (09:30) -- -- -- -- --
07-09-2018 27 (15:40) 16.3 (00:00) 21.6 10.28 (17:40) 5.56 (18:40) -- -- -- -- --
06-09-2018 30.4 (14:20) 16.4 (00:00) 23.4 8.33 (15:40) 3.89 (19:20) -- -- -- -- --
05-09-2018 32.6 (14:30) 17.4 (00:00) 25 10.28 (16:30) 3.89 (16:30) -- -- -- -- --
04-09-2018 33 (16:10) 17.6 (00:00) 25.3 10.83 (20:00) 5.28 (20:00) -- -- -- -- --
03-09-2018 32.9 (18:30) 20.1 (00:00) 26.5 12.22 (13:50) 5.56 (15:10) -- -- -- -- --
02-09-2018 31.8 (14:30) 18.4 (00:00) 25.1 9.44 (15:20) 4.72 (17:00) -- -- -- -- --
01-09-2018 31.2 (15:10) 17.5 (00:00) 24.4 11.11 (17:10) 5.83 (13:40) -- -- -- -- --
31-08-2018 30.6 (14:20) 17.2 (00:00) 23.9 10.28 (12:30) 4.72 (12:00) -- -- -- -- --
30-08-2018 29.8 (15:10) 17.9 (00:00) 23.8 11.11 (16:20) 5 (14:50) -- -- -- -- --
29-08-2018 29.9 (13:30) 20.5 (00:00) 25.2 10.28 (16:40) 5.28 (16:20) -- -- -- -- --
28-08-2018 34 (14:50) 21.6 (00:00) 27.8 11.67 (13:30) 5.28 (20:40) -- -- -- -- --
27-08-2018 33.2 (16:00) 17.6 (00:00) 25.4 13.06 (14:50) 6.39 (14:50) -- -- -- -- --
26-08-2018 32.5 (14:50) 19.6 (00:00) 26.1 11.39 (16:50) 5.28 (17:20) -- -- -- -- --
25-08-2018 34.8 (14:50) 21.6 (00:00) 28.2 9.17 (16:00) 4.17 (16:20) -- -- -- -- --

Gráficas

Temp. máximas Temp. mínimas Temp. medias Precipitaciones Rachas de viento máximas Velocidades máximas media en intervalos de 10 minutos

Datos horarios

Fecha y hora oficial Temperatura (ºC) Velocidad del viento (km/h) Dirección del viento Racha (km/h) Dirección de racha Precipitación (mm) Presión (hPa) Tendencia (hPa) Humedad (%)
2018-09-23 23:00:00 22.1 2 Noroeste 10 Norte -- -- -- 40
2018-09-23 22:00:00 23.4 0 Calma 6 Norte -- -- -- 38
2018-09-23 21:00:00 24 3 Noroeste 12 Noroeste -- -- -- 36
2018-09-23 20:00:00 25.7 5 Norte 23 Este -- -- -- 34
2018-09-23 19:00:00 27 12 Nordeste 25 Nordeste -- -- -- 32
2018-09-23 18:00:00 28 10 Nordeste 31 Nordeste -- -- -- 31
2018-09-23 17:00:00 28.7 13 Nordeste 28 Nordeste -- -- -- 29
2018-09-23 16:00:00 29.5 11 Nordeste 28 Nordeste -- -- -- 29
2018-09-23 15:00:00 29.8 12 Nordeste 30 Este -- -- -- 28
2018-09-23 14:00:00 28.3 14 Nordeste 29 Este -- -- -- 28
2018-09-23 13:00:00 28.8 12 Nordeste 29 Este -- -- -- 27
2018-09-23 12:00:00 28.1 12 Nordeste 26 Este -- -- -- 27
2018-09-23 11:00:00 27.3 7 Nordeste 20 Nordeste -- -- -- 31
2018-09-23 10:00:00 24.7 0 Calma 4 Este -- -- -- 42
2018-09-23 09:00:00 20.7 0 Calma 8 Norte -- -- -- 46
2018-09-23 08:00:00 18.3 0 Calma 4 Nordeste -- -- -- 49
2018-09-23 07:00:00 18.3 0 Calma 9 Noroeste -- -- -- 47
2018-09-23 06:00:00 18.9 0 Calma 11 Noroeste -- -- -- 46
2018-09-23 05:00:00 18.4 2 Noroeste 9 Norte -- -- -- 46
2018-09-23 04:00:00 19.4 0 Calma 7 Norte -- -- -- 45
2018-09-23 03:00:00 20.2 0 Calma 8 Noroeste -- -- -- 44
2018-09-23 02:00:00 19.7 0 Calma 9 Norte -- -- -- 44
2018-09-23 01:00:00 20.8 2 Noroeste 8 Norte -- -- -- 42
2018-09-23 00:00:00 20.9 2 Noroeste 12 Oeste -- -- -- 45
2018-09-22 23:00:00 21.4 3 Noroeste 9 Norte -- -- -- 44
2018-09-22 22:00:00 22 0 Calma 10 Nordeste -- -- -- 48
2018-09-22 21:00:00 23.4 0 Calma 14 Este -- -- -- 42
2018-09-22 20:00:00 25.2 7 Este 23 Este -- -- -- 41
2018-09-22 19:00:00 26.5 10 Nordeste 27 Este -- -- -- 38
2018-09-22 18:00:00 27.9 10 Nordeste 30 Nordeste -- -- -- 38
2018-09-22 17:00:00 28.5 10 Nordeste 27 Este -- -- -- 37
2018-09-22 16:00:00 28.9 12 Nordeste 28 Nordeste -- -- -- 35
2018-09-22 15:00:00 29 14 Nordeste 31 Este -- -- -- 33
2018-09-22 14:00:00 29.5 10 Nordeste 27 Nordeste -- -- -- 33
2018-09-22 13:00:00 28.2 12 Nordeste 27 Nordeste -- -- -- 31
2018-09-22 12:00:00 27.4 9 Nordeste 19 Nordeste -- -- -- 36
2018-09-22 11:00:00 25.8 7 Nordeste 15 Nordeste -- -- -- 41
2018-09-22 10:00:00 24.2 0 Calma 7 Oeste -- -- -- 44
2018-09-22 09:00:00 20.5 7 Noroeste 12 Oeste -- -- -- 51
2018-09-22 08:00:00 19.1 3 Oeste 12 Oeste -- -- -- 53
2018-09-22 07:00:00 19.7 0 Calma 13 Noroeste -- -- -- 52
2018-09-22 06:00:00 19.3 2 Noroeste 8 Noroeste -- -- -- 52
2018-09-22 05:00:00 19.6 4 Noroeste 9 Oeste -- -- -- 50
2018-09-22 04:00:00 20 2 Noroeste 10 Norte -- -- -- 49
2018-09-22 03:00:00 20.5 2 Noroeste 10 Noroeste -- -- -- 49
2018-09-22 02:00:00 20.6 0 Calma 7 Noroeste -- -- -- 50
2018-09-22 01:00:00 20.9 3 Noroeste 9 Noroeste -- -- -- 48
2018-09-22 00:00:00 21.5 0 Calma 9 Noroeste -- -- -- 47
2018-09-21 23:00:00 22.3 3 Noroeste 11 Noroeste -- -- -- 47
2018-09-21 22:00:00 22.9 3 Noroeste 10 Noroeste -- -- -- 47
2018-09-21 21:00:00 23.2 4 Nordeste 14 Este -- -- -- 48
2018-09-21 20:00:00 24.8 9 Este 21 Este -- -- -- 39
2018-09-21 19:00:00 26.4 10 Nordeste 26 Este -- -- -- 38
2018-09-21 18:00:00 27.4 12 Nordeste 27 Este -- -- -- 37
2018-09-21 17:00:00 27.7 12 Nordeste 29 Este -- -- -- 37
2018-09-21 16:00:00 29 13 Este 28 Este -- -- -- 33
2018-09-21 15:00:00 29.2 13 Nordeste 25 Este -- -- -- 31
2018-09-21 14:00:00 29.3 10 Nordeste 29 Nordeste -- -- -- 32
2018-09-21 13:00:00 29.2 3 Nordeste 18 Este -- -- -- 32
2018-09-21 12:00:00 28.2 3 Norte 18 Norte -- -- -- 42
2018-09-21 11:00:00 26.4 7 Noroeste 16 Noroeste -- -- -- 47
2018-09-21 10:00:00 24 6 Noroeste 15 Norte -- -- -- 52
2018-09-21 09:00:00 21.3 6 Noroeste 18 Norte -- -- -- 59
2018-09-21 08:00:00 19.1 6 Norte 15 Noroeste -- -- -- 64
2018-09-21 07:00:00 19.2 8 Noroeste 16 Norte -- -- -- 64
2018-09-21 06:00:00 19.3 7 Noroeste 14 Noroeste -- -- -- 64
2018-09-21 05:00:00 18.9 6 Noroeste 11 Oeste -- -- -- 68
2018-09-21 04:00:00 19.4 3 Oeste 10 Noroeste -- -- -- 70
2018-09-21 03:00:00 19.6 0 Calma 6 Noroeste -- -- -- 63
2018-09-21 02:00:00 19.5 0 Calma 7 Noroeste -- -- -- 64
2018-09-21 01:00:00 20 0 Calma 6 Norte -- -- -- 68
2018-09-21 00:00:00 20.4 0 Calma 9 Noroeste -- -- -- 74
2018-09-20 23:00:00 20.8 0 Calma 10 Noroeste -- -- -- 71
2018-09-20 22:00:00 21.2 4 Nordeste 9 Nordeste -- -- -- 84
2018-09-20 21:00:00 21.5 5 Nordeste 15 Este -- -- -- 83
2018-09-20 20:00:00 22.3 9 Nordeste 28 Este -- -- -- 75
2018-09-20 19:00:00 23.2 15 Este 31 Este -- -- -- 67
2018-09-20 18:00:00 24.3 15 Nordeste 33 Este -- -- -- 58
2018-09-20 17:00:00 26.1 13 Nordeste 33 Nordeste -- -- -- 46
2018-09-20 16:00:00 27.5 12 Nordeste 30 Nordeste -- -- -- 41
2018-09-20 15:00:00 27.4 14 Nordeste 29 Nordeste -- -- -- 38
2018-09-20 14:00:00 26.6 16 Este 32 Este -- -- -- 39
2018-09-20 13:00:00 26.6 14 Nordeste 27 Este -- -- -- 37
2018-09-20 12:00:00 24.8 10 Nordeste 21 Este -- -- -- 55
2018-09-20 11:00:00 23.7 5 Nordeste 11 Este -- -- -- 63
2018-09-20 10:00:00 21.4 0 Calma 5 Este -- -- -- 65
2018-09-20 09:00:00 19.1 0 Calma 7 Oeste -- -- -- 71
2018-09-20 08:00:00 17.9 2 Noroeste 9 Oeste -- -- -- 66
2018-09-20 07:00:00 18.1 3 Noroeste 10 Norte -- -- -- 64
2018-09-20 06:00:00 18 0 Calma 15 Noroeste -- -- -- 71
2018-09-20 05:00:00 18.5 3 Noroeste 12 Norte -- -- -- 68
2018-09-20 04:00:00 19.2 3 Norte 10 Nordeste -- -- -- 74
2018-09-20 03:00:00 18.8 0 Calma 10 Norte -- -- -- 87
2018-09-20 02:00:00 19.9 0 Calma 7 Nordeste -- -- -- 80
2018-09-20 01:00:00 20.2 3 Noroeste 10 Noroeste -- -- -- 67
2018-09-20 00:00:00 20.3 0 Calma 6 Noroeste -- -- -- 78
2018-09-19 23:00:00 20.8 0 Calma 6 Noroeste -- -- -- 82
2018-09-19 22:00:00 21 3 Noroeste 8 Norte -- -- -- 75
2018-09-19 21:00:00 21.5 0 Calma 7 Este -- -- -- 83
2018-09-19 20:00:00 21.4 3 Nordeste 16 Nordeste -- -- -- 83
2018-09-19 19:00:00 22.4 5 Nordeste 23 Este -- -- -- 77
2018-09-19 18:00:00 22.6 10 Nordeste 23 Este -- -- -- 74
2018-09-19 17:00:00 23.8 10 Nordeste 23 Nordeste -- -- -- 70
2018-09-19 16:00:00 23.3 13 Este 26 Este -- -- -- 69
2018-09-19 15:00:00 24.5 9 Nordeste 27 Nordeste -- -- -- 52
2018-09-19 14:00:00 27.2 14 Nordeste 30 Este -- -- -- 46
2018-09-19 13:00:00 27.2 8 Nordeste 21 Este -- -- -- 46
2018-09-19 12:00:00 25.9 6 Nordeste 17 Nordeste -- -- -- 46
2018-09-19 11:00:00 25 7 Nordeste 15 Este -- -- -- 49
2018-09-19 10:00:00 24.1 2 Norte 10 Noroeste -- -- -- 53
2018-09-19 09:00:00 20.7 4 Noroeste 13 Oeste -- -- -- 62
2018-09-19 08:00:00 17.4 8 Noroeste 12 Noroeste -- -- -- 78
2018-09-19 07:00:00 18.4 2 Noroeste 12 Oeste -- -- -- 77
2018-09-19 06:00:00 17.6 5 Noroeste 11 Noroeste -- -- -- 82
2018-09-19 05:00:00 18.2 0 Calma 8 Oeste -- -- -- 80
2018-09-19 04:00:00 19 3 Oeste 8 Oeste -- -- -- 76
2018-09-19 03:00:00 19.2 0 Calma 6 Nordeste -- -- -- 72
2018-09-19 02:00:00 20.1 0 Calma 11 Norte -- -- -- 68
2018-09-19 01:00:00 20.4 0 Calma 6 Noroeste -- -- -- 68
2018-09-19 00:00:00 20.8 3 Noroeste 10 Oeste -- -- -- 65
2018-09-18 23:00:00 20.6 2 Noroeste 10 Noroeste -- -- -- 68
2018-09-18 22:00:00 20.8 3 Noroeste 12 Noroeste -- -- -- 65
2018-09-18 21:00:00 21.3 0 Calma 6 Noroeste -- -- -- 66
2018-09-18 20:00:00 22 3 Nordeste 16 Nordeste -- -- -- 61
2018-09-18 19:00:00 22.9 7 Nordeste 28 Nordeste -- -- -- 52
2018-09-18 18:00:00 23.9 10 Este 30 Este -- -- -- 51
2018-09-18 17:00:00 24.4 12 Nordeste 31 Este -- -- -- 56
2018-09-18 16:00:00 28 3 Norte 15 Noroeste -- -- -- 40
2018-09-18 15:00:00 25.7 4 Nordeste 15 Nordeste -- -- -- 44
2018-09-18 14:00:00 27.6 6 Nordeste 16 Nordeste -- -- -- 40
2018-09-18 13:00:00 28.2 5 Nordeste 14 Este -- -- -- 40
2018-09-18 12:00:00 26.8 3 Nordeste 10 Nordeste -- -- -- 46
2018-09-18 11:00:00 24.6 4 Nordeste 10 Noroeste -- -- -- 49
2018-09-18 10:00:00 23.6 0 Calma 8 Noroeste -- -- -- 53
2018-09-18 09:00:00 20.5 0 Calma 13 Noroeste -- -- -- 60
2018-09-18 08:00:00 17.9 2 Norte 12 Noroeste -- -- -- 68
2018-09-18 07:00:00 18 4 Noroeste 15 Oeste -- -- -- 72
2018-09-18 06:00:00 18.2 5 Oeste 12 Noroeste -- -- -- 68
2018-09-18 05:00:00 17.7 6 Noroeste 13 Norte -- -- -- 77
2018-09-18 04:00:00 18.5 5 Noroeste 17 Noroeste -- -- -- 72
2018-09-18 03:00:00 17.5 3 Oeste 11 Oeste -- -- -- 86
2018-09-18 02:00:00 18.4 3 Noroeste 12 Oeste -- -- -- 83
2018-09-18 01:00:00 18.9 4 Noroeste 12 Oeste -- -- -- 79
2018-09-18 00:00:00 18.6 3 Noroeste 10 Oeste -- -- -- 78
2018-09-17 23:00:00 19 3 Noroeste 10 Noroeste -- -- -- 81
2018-09-17 22:00:00 19.3 0 Calma 14 Este -- -- -- 89
2018-09-17 21:00:00 20.3 6 Nordeste 17 Este -- -- -- 81
2018-09-17 20:00:00 21.2 8 Nordeste 18 Este -- -- -- 75
2018-09-17 19:00:00 21 7 Nordeste 18 Nordeste -- -- -- 75
2018-09-17 18:00:00 21.2 8 Nordeste 24 Nordeste -- -- -- 77
2018-09-17 17:00:00 23.6 10 Nordeste 28 Nordeste -- -- -- 62
2018-09-17 16:00:00 22.9 17 Nordeste 36 Nordeste -- -- -- 65
2018-09-17 15:00:00 23.2 13 Nordeste 32 Nordeste -- -- -- 65
2018-09-17 14:00:00 21.3 12 Nordeste 21 Nordeste -- -- -- 78
2018-09-17 13:00:00 20.7 9 Nordeste 20 Nordeste -- -- -- 77
2018-09-17 12:00:00 21.7 10 Nordeste 25 Este -- -- -- 67
2018-09-17 11:00:00 21.4 12 Nordeste 29 Este -- -- -- 68
2018-09-17 10:00:00 20 8 Nordeste 21 Nordeste -- -- -- 76
2018-09-17 09:00:00 18.5 2 Nordeste 7 Norte -- -- -- 85
2018-09-17 08:00:00 18.4 0 Calma 9 Noroeste -- -- -- 82
2018-09-17 07:00:00 18.2 0 Calma 5 Oeste -- -- -- 85
2018-09-17 06:00:00 18.1 0 Calma 6 Nordeste -- -- -- 90
2018-09-17 05:00:00 18.4 2 Este 14 Este -- -- -- 90
2018-09-17 04:00:00 19.1 8 Este 16 Este -- -- -- 90
2018-09-17 03:00:00 18.8 5 Nordeste 12 Este -- -- -- 92
2018-09-17 02:00:00 18.6 2 Este 7 Este -- -- -- 90
2018-09-17 01:00:00 19.1 0 Calma 11 Noroeste -- -- -- 81
2018-09-17 00:00:00 19.2 2 Noroeste 10 Noroeste -- -- -- 75
2018-09-16 23:00:00 19.9 2 Norte 8 Este -- -- -- 77
2018-09-16 22:00:00 20.5 4 Nordeste 14 Este -- -- -- 73
2018-09-16 21:00:00 21.3 7 Nordeste 20 Este -- -- -- 68
2018-09-16 20:00:00 22.8 8 Este 18 Este -- -- -- 58
2018-09-16 19:00:00 23.4 10 Nordeste 26 Este -- -- -- 54
2018-09-16 18:00:00 24.1 13 Nordeste 27 Este -- -- -- 52
2018-09-16 17:00:00 24.9 14 Nordeste 28 Este -- -- -- 47
2018-09-16 16:00:00 26.1 11 Nordeste 25 Este -- -- -- 41
2018-09-16 15:00:00 26.1 12 Nordeste 26 Este -- -- -- 42
2018-09-16 14:00:00 24.7 14 Nordeste 27 Nordeste -- -- -- 45
2018-09-16 13:00:00 24 8 Este 17 Este -- -- -- 49
2018-09-16 12:00:00 23.7 3 Noroeste 8 Norte -- -- -- 49
2018-09-16 11:00:00 20.7 0 Calma 8 Nordeste -- -- -- 63
2018-09-16 10:00:00 18.1 0 Calma 6 Noroeste -- -- -- 67
2018-09-16 09:00:00 16 2 Noroeste 9 Noroeste -- -- -- 86
2018-09-16 08:00:00 15.8 5 Noroeste 13 Oeste -- -- -- 82
2018-09-16 07:00:00 15.7 2 Noroeste 10 Oeste -- -- -- 85
2018-09-16 06:00:00 15.8 3 Oeste 10 Oeste -- -- -- 89
2018-09-16 05:00:00 16.3 4 Noroeste 10 Norte -- -- -- 79
2018-09-16 04:00:00 16.6 2 Noroeste 8 Nordeste -- -- -- 94
2018-09-16 03:00:00 16.6 0 Calma 5 Nordeste -- -- -- 94
2018-09-16 02:00:00 17.4 2 Nordeste 8 Nordeste -- -- -- 94
2018-09-16 01:00:00 17.8 2 Nordeste 14 Este -- -- -- 94
2018-09-16 00:00:00 18 5 Este 13 Este -- -- -- 94
2018-09-15 23:00:00 18.4 4 Nordeste 13 Este -- -- -- 93
2018-09-15 22:00:00 18.9 5 Nordeste 17 Nordeste -- -- -- 88
2018-09-15 21:00:00 19.9 8 Nordeste 22 Nordeste -- -- -- 70
2018-09-15 20:00:00 20.2 6 Nordeste 18 Norte -- -- -- 68
2018-09-15 19:00:00 20.6 8 Nordeste 18 Nordeste -- -- -- 70
2018-09-15 18:00:00 20.3 9 Nordeste 22 Este -- -- -- 76
2018-09-15 17:00:00 19.7 13 Nordeste 24 Nordeste -- -- -- 76
2018-09-15 16:00:00 19.1 12 Este 31 Nordeste -- -- -- 90
2018-09-15 15:00:00 20.2 12 Nordeste 24 Nordeste -- -- -- 84
2018-09-15 14:00:00 19.3 10 Nordeste 26 Nordeste -- -- -- 86
2018-09-15 13:00:00 21.9 12 Este 21 Nordeste -- -- -- 67
2018-09-15 12:00:00 20.2 7 Nordeste 12 Nordeste -- -- -- 77
2018-09-15 11:00:00 18.6 2 Norte 7 Norte -- -- -- 89
2018-09-15 10:00:00 17.9 0 Calma 8 Noroeste -- -- -- 94
2018-09-15 09:00:00 17.6 0 Calma 8 Este -- -- -- 93
2018-09-15 08:00:00 18 2 Norte 9 Nordeste -- -- -- 87
2018-09-15 07:00:00 18.6 2 Nordeste 8 Noroeste -- -- -- 82
2018-09-15 06:00:00 18.5 3 Noroeste 11 Noroeste -- -- -- 79
2018-09-15 05:00:00 18.2 3 Nordeste 13 Nordeste -- -- -- 87
2018-09-15 04:00:00 19.3 2 Noroeste 10 Norte -- -- -- 75
2018-09-15 03:00:00 19.1 5 Norte 14 Noroeste -- -- -- 80
2018-09-15 02:00:00 19.4 4 Noroeste 8 Norte -- -- -- 73
2018-09-15 01:00:00 19.6 4 Este 8 Este -- -- -- 90
2018-09-15 00:00:00 19.9 0 Calma 7 Norte -- -- -- 75
2018-09-14 23:00:00 19.7 4 Norte 10 Nordeste -- -- -- 86
2018-09-14 22:00:00 20.3 4 Nordeste 16 Este -- -- -- 81
2018-09-14 21:00:00 21.5 6 Nordeste 15 Nordeste -- -- -- 65
2018-09-14 20:00:00 23.1 4 Nordeste 18 Nordeste -- -- -- 53
2018-09-14 19:00:00 23.2 7 Nordeste 25 Nordeste -- -- -- 51
2018-09-14 18:00:00 24 8 Nordeste 22 Nordeste -- -- -- 49
2018-09-14 17:00:00 24.3 11 Nordeste 27 Este -- -- -- 47
2018-09-14 16:00:00 24.9 9 Nordeste 27 Nordeste -- -- -- 48
2018-09-14 15:00:00 27.2 8 Nordeste 26 Este -- -- -- 46
2018-09-14 14:00:00 24.8 12 Nordeste 27 Este -- -- -- 53
2018-09-14 13:00:00 24.2 13 Nordeste 26 Nordeste -- -- -- 54
2018-09-14 12:00:00 23 11 Nordeste 24 Nordeste -- -- -- 59
2018-09-14 11:00:00 22.5 7 Nordeste 15 Nordeste -- -- -- 57
2018-09-14 10:00:00 22.2 5 Nordeste 9 Nordeste -- -- -- 57
2018-09-14 09:00:00 19.7 3 Noroeste 8 Norte -- -- -- 54
2018-09-14 08:00:00 18.8 0 Calma 7 Oeste -- -- -- 75
2018-09-14 07:00:00 17.7 3 Noroeste 9 Oeste -- -- -- 95
2018-09-14 06:00:00 18.8 2 Noroeste 8 Nordeste -- -- -- 82
2018-09-14 05:00:00 19.3 0 Calma 6 Nordeste -- -- -- 78
2018-09-14 04:00:00 19.1 0 Calma 9 Norte -- -- -- 68
2018-09-14 03:00:00 20.5 3 Noroeste 10 Oeste -- -- -- 59
2018-09-14 02:00:00 20 5 Noroeste 8 Oeste -- -- -- 75
2018-09-14 01:00:00 19.9 2 Norte 9 Norte -- -- -- 82
2018-09-14 00:00:00 20.1 2 Noroeste 8 Norte -- -- -- 73
2018-09-13 23:00:00 20.3 4 Nordeste 13 Este -- -- -- 90
2018-09-13 22:00:00 20.6 5 Nordeste 15 Nordeste -- -- -- 90
2018-09-13 21:00:00 21.1 7 Este 18 Nordeste -- -- -- 87
2018-09-13 20:00:00 21.9 6 Nordeste 17 Nordeste -- -- -- 72
2018-09-13 19:00:00 22.7 8 Nordeste 16 Este -- -- -- 55
2018-09-13 18:00:00 23.3 4 Nordeste 19 Este -- -- -- 52
2018-09-13 17:00:00 22 12 Este 35 Este -- -- -- 59
2018-09-13 16:00:00 25.1 16 Nordeste 36 Este -- -- -- 53
2018-09-13 15:00:00 28.8 7 Nordeste 23 Nordeste -- -- -- 38
2018-09-13 14:00:00 28.8 8 Nordeste 21 Nordeste -- -- -- 36
2018-09-13 13:00:00 27.1 7 Nordeste 12 Nordeste -- -- -- 38
2018-09-13 12:00:00 28.4 4 Norte 11 Norte -- -- -- 38
2018-09-13 11:00:00 26.8 3 Norte 9 Norte -- -- -- 46
2018-09-13 10:00:00 23.9 4 Noroeste 12 Norte -- -- -- 57
2018-09-13 09:00:00 21.6 7 Noroeste 15 Noroeste -- -- -- 64
2018-09-13 08:00:00 19.8 5 Noroeste 16 Noroeste -- -- -- 69
2018-09-13 07:00:00 19.7 5 Noroeste 14 Noroeste -- -- -- 71
2018-09-13 06:00:00 20.7 4 Noroeste 14 Noroeste -- -- -- 65
2018-09-13 05:00:00 21 3 Noroeste 11 Oeste -- -- -- 66
2018-09-13 04:00:00 21.4 3 Noroeste 12 Oeste -- -- -- 68
2018-09-13 03:00:00 21.8 3 Noroeste 13 Noroeste -- -- -- 67
2018-09-13 02:00:00 21.8 3 Noroeste 15 Norte -- -- -- 68
2018-09-13 01:00:00 22.1 3 Noroeste 9 Noroeste -- -- -- 68
2018-09-13 00:00:00 21.9 0 Calma 10 Oeste -- -- -- 71
2018-09-12 23:00:00 21.8 0 Calma 8 Noroeste -- -- -- 73
2018-09-12 22:00:00 22.1 2 Norte 8 Este -- -- -- 72
2018-09-12 21:00:00 22.6 3 Nordeste 18 Este -- -- -- 70
2018-09-12 20:00:00 23 10 Este 25 Este -- -- -- 67
2018-09-12 19:00:00 23.7 13 Nordeste 34 Este -- -- -- 64
2018-09-12 18:00:00 25.3 15 Este 29 Este -- -- -- 53
2018-09-12 17:00:00 27.6 8 Nordeste 23 Este -- -- -- 46
2018-09-12 16:00:00 27.6 8 Nordeste 22 Nordeste -- -- -- 45
2018-09-12 15:00:00 27.3 9 Nordeste 23 Este -- -- -- 48
2018-09-12 14:00:00 26.3 9 Nordeste 22 Nordeste -- -- -- 50
2018-09-12 13:00:00 25.3 11 Nordeste 26 Nordeste -- -- -- 53
2018-09-12 12:00:00 23.2 12 Este 27 Este -- -- -- 65
2018-09-12 11:00:00 22.3 11 Nordeste 25 Nordeste -- -- -- 70
2018-09-12 10:00:00 20.8 0 Calma 7 Nordeste -- -- -- 79
2018-09-12 09:00:00 19.4 4 Noroeste 8 Nordeste -- -- -- 88
2018-09-12 08:00:00 17.9 3 Noroeste 13 Oeste -- -- -- 93
2018-09-12 07:00:00 17.9 0 Calma 15 Norte -- -- -- 93
2018-09-12 06:00:00 18.3 5 Nordeste 21 Nordeste -- -- -- 93
2018-09-12 05:00:00 18.8 5 Nordeste 28 Nordeste -- -- -- 91
2018-09-12 04:00:00 18.9 8 Este 19 Nordeste -- -- -- 91
2018-09-12 03:00:00 19.5 12 Nordeste 23 Este -- -- -- 86
2018-09-12 02:00:00 19.7 13 Nordeste 24 Nordeste -- -- -- 86
2018-09-12 01:00:00 19.3 6 Nordeste 17 Nordeste -- -- -- 90
2018-09-12 00:00:00 19.7 3 Norte 9 Nordeste -- -- -- 81
2018-09-11 23:00:00 20 2 Nordeste 12 Este -- -- -- 84
2018-09-11 22:00:00 20.6 4 Este 9 Este -- -- -- 79
2018-09-11 21:00:00 21.3 5 Nordeste 13 Este -- -- -- 73
2018-09-11 20:00:00 22.3 8 Nordeste 21 Este -- -- -- 66
2018-09-11 19:00:00 23.1 7 Nordeste 24 Nordeste -- -- -- 61
2018-09-11 18:00:00 23.8 10 Nordeste 24 Nordeste -- -- -- 60
2018-09-11 17:00:00 23.1 11 Nordeste 22 Este -- -- -- 60
2018-09-11 16:00:00 22.7 7 Nordeste 22 Nordeste -- -- -- 64
2018-09-11 15:00:00 21.7 7 Nordeste 22 Norte -- -- -- 67
2018-09-11 14:00:00 21.4 9 Norte 24 Norte -- -- -- 68
2018-09-11 13:00:00 21.4 9 Nordeste 29 Nordeste -- -- -- 67
2018-09-11 12:00:00 21.7 10 Nordeste 27 Este -- -- -- 61
2018-09-11 11:00:00 22 9 Este 18 Nordeste -- -- -- 57
2018-09-11 10:00:00 20.8 7 Nordeste 17 Nordeste -- -- -- 64
2018-09-11 09:00:00 19 0 Calma 7 Noroeste -- -- -- 72
2018-09-11 08:00:00 17.1 3 Noroeste 6 Noroeste -- -- -- 82
2018-09-11 07:00:00 16.2 0 Calma 8 Nordeste -- -- -- 88
2018-09-11 06:00:00 16.7 0 Calma 5 Noroeste -- -- -- 89
2018-09-11 05:00:00 17.2 0 Calma 5 Norte -- -- -- 91
2018-09-11 04:00:00 17.8 0 Calma 7 Nordeste -- -- -- 89
2018-09-11 03:00:00 17.9 0 Calma 6 Norte -- -- -- 90
2018-09-11 02:00:00 18.1 2 Nordeste 12 Nordeste -- -- -- 91
2018-09-11 01:00:00 18.7 5 Nordeste 18 Nordeste -- -- -- 88
2018-09-11 00:00:00 20.1 9 Norte 23 Nordeste -- -- -- 73
2018-09-10 23:00:00 20.4 8 Nordeste 18 Nordeste -- -- -- 81
2018-09-10 22:00:00 20.9 9 Norte 24 Este -- -- -- 75
2018-09-10 21:00:00 21.2 10 Nordeste 22 Este -- -- -- 71
2018-09-10 20:00:00 22 9 Nordeste 25 Este -- -- -- 70
2018-09-10 19:00:00 23.2 12 Nordeste 26 Este -- -- -- 57
2018-09-10 18:00:00 24.1 8 Nordeste 25 Este -- -- -- 49
2018-09-10 17:00:00 24.4 10 Nordeste 24 Nordeste -- -- -- 48
2018-09-10 16:00:00 24 13 Nordeste 26 Este -- -- -- 49
2018-09-10 15:00:00 25.1 13 Nordeste 26 Este -- -- -- 47
2018-09-10 14:00:00 24.7 12 Nordeste 29 Este -- -- -- 49
2018-09-10 13:00:00 24.2 14 Nordeste 28 Este -- -- -- 47
2018-09-10 12:00:00 23.5 14 Nordeste 27 Este -- -- -- 46
2018-09-10 11:00:00 23.9 3 Nordeste 10 Nordeste -- -- -- 48
2018-09-10 10:00:00 21.8 4 Norte 8 Noroeste -- -- -- 56
2018-09-10 09:00:00 18.8 2 Norte 13 Oeste -- -- -- 69
2018-09-10 08:00:00 15.7 6 Noroeste 13 Norte -- -- -- 80
2018-09-10 07:00:00 15.9 5 Norte 14 Norte -- -- -- 83
2018-09-10 06:00:00 15.9 3 Noroeste 15 Noroeste -- -- -- 84
2018-09-10 05:00:00 16.1 3 Norte 17 Norte -- -- -- 79
2018-09-10 04:00:00 17.1 3 Noroeste 13 Oeste -- -- -- 71
2018-09-10 03:00:00 16.5 2 Noroeste 11 Noroeste -- -- -- 76
2018-09-10 02:00:00 16.6 3 Oeste 9 Noroeste -- -- -- 79
2018-09-10 01:00:00 17.6 3 Noroeste 14 Noroeste -- -- -- 72
2018-09-10 00:00:00 17.4 4 Noroeste 19 Noroeste -- -- -- 78
2018-09-09 23:00:00 17.8 6 Noroeste 19 Noroeste -- -- -- 75
2018-09-09 22:00:00 17.7 8 Noroeste 20 Norte -- -- -- 72
2018-09-09 21:00:00 18.4 4 Noroeste 14 Noroeste -- -- -- 68
2018-09-09 20:00:00 17.9 3 Noroeste 10 Norte -- -- -- 79
2018-09-09 19:00:00 18.5 3 Norte 10 Norte -- -- -- 79
2018-09-09 18:00:00 19.5 3 Noroeste 12 Noroeste -- -- -- 73
2018-09-09 17:00:00 18.5 3 Norte 14 Oeste -- -- -- 85
2018-09-09 16:00:00 18.9 5 Noroeste 12 Norte -- -- -- 80
2018-09-09 15:00:00 18 4 Nordeste 22 Nordeste -- -- -- 85
2018-09-09 14:00:00 18.9 2 Noroeste 10 Noroeste -- -- -- 74
2018-09-09 13:00:00 18 4 Noroeste 12 Noroeste -- -- -- 80
2018-09-09 12:00:00 19 3 Noroeste 11 Nordeste -- -- -- 73
2018-09-09 11:00:00 17.5 6 Noroeste 15 Noroeste -- -- -- 80
2018-09-09 10:00:00 16.7 2 Nordeste 8 Noroeste -- -- -- 84
2018-09-09 09:00:00 15.7 3 Nordeste 10 Noroeste -- -- -- 88
2018-09-09 08:00:00 15 3 Nordeste 11 Norte -- -- -- 93
2018-09-09 07:00:00 15.3 3 Noroeste 14 Norte -- -- -- 90
2018-09-09 06:00:00 17 3 Noroeste 12 Norte -- -- -- 75
2018-09-09 05:00:00 16.6 0 Calma 10 Oeste -- -- -- 80
2018-09-09 04:00:00 16.8 3 Noroeste 11 Norte -- -- -- 78
2018-09-09 03:00:00 15.3 5 Noroeste 12 Noroeste -- -- -- 92
2018-09-09 02:00:00 15.8 0 Calma 9 Noroeste -- -- -- 91
2018-09-09 01:00:00 16.1 0 Calma 9 Noroeste -- -- -- 89
2018-09-09 00:00:00 16.6 5 Noroeste 13 Oeste -- -- -- 87
2018-09-08 23:00:00 17.7 4 Noroeste 14 Oeste -- -- -- 77
2018-09-08 22:00:00 18.2 5 Oeste 12 Oeste -- -- -- 78
2018-09-08 21:00:00 18.1 4 Noroeste 10 Norte -- -- -- 76
2018-09-08 20:00:00 19 4 Noroeste 13 Noroeste -- -- -- 75
2018-09-08 19:00:00 18.8 2 Noroeste 13 Norte -- -- -- 72
2018-09-08 18:00:00 17.2 9 Noroeste 20 Norte -- -- -- 77
2018-09-08 17:00:00 20 5 Norte 11 Norte -- -- -- 73
2018-09-08 16:00:00 20.3 4 Noroeste 14 Norte -- -- -- 75
2018-09-08 15:00:00 19.5 3 Noroeste 10 Norte -- -- -- 85
2018-09-08 14:00:00 20.4 2 Norte 17 Nordeste -- -- -- 69
2018-09-08 13:00:00 19.4 6 Nordeste 23 Nordeste -- -- -- 75
2018-09-08 12:00:00 21.2 6 Nordeste 17 Este -- -- -- 68
2018-09-08 11:00:00 17.3 9 Nordeste 23 Nordeste -- -- -- 86
2018-09-08 10:00:00 17.3 3 Norte 26 Norte -- -- -- 76
2018-09-08 09:00:00 15.4 3 Norte 16 Norte -- -- -- 93
2018-09-08 08:00:00 16.4 6 Noroeste 22 Noroeste -- -- -- 82
2018-09-08 07:00:00 17.5 6 Nordeste 11 Nordeste -- -- -- 72
2018-09-08 06:00:00 17.8 4 Nordeste 12 Este -- -- -- 69
2018-09-08 05:00:00 18.1 6 Nordeste 14 Nordeste -- -- -- 68
2018-09-08 04:00:00 18.8 2 Norte 11 Noroeste -- -- -- 60
2018-09-08 03:00:00 18.9 2 Noroeste 8 Nordeste -- -- -- 71
2018-09-08 02:00:00 18.1 5 Este 9 Este -- -- -- 74
2018-09-08 01:00:00 19 3 Nordeste 15 Nordeste -- -- -- 71
2018-09-08 00:00:00 20.2 7 Nordeste 17 Este -- -- -- 66
2018-09-07 23:00:00 20.5 8 Este 19 Este -- -- -- 67
2018-09-07 22:00:00 21.2 9 Nordeste 20 Este -- -- -- 62
2018-09-07 21:00:00 22.7 9 Nordeste 26 Nordeste -- -- -- 48
2018-09-07 20:00:00 23.6 11 Nordeste 36 Este -- -- -- 45
2018-09-07 19:00:00 24.2 18 Este 35 Este -- -- -- 43
2018-09-07 18:00:00 26 15 Nordeste 37 Este -- -- -- 43
2018-09-07 17:00:00 25.7 17 Nordeste 36 Nordeste -- -- -- 44
2018-09-07 16:00:00 25.6 17 Nordeste 34 Este -- -- -- 46
2018-09-07 15:00:00 26.7 13 Este 33 Este -- -- -- 45
2018-09-07 14:00:00 25.6 15 Nordeste 36 Este -- -- -- 46
2018-09-07 13:00:00 25.2 16 Nordeste 34 Este -- -- -- 49
2018-09-07 12:00:00 24.1 15 Nordeste 36 Este -- -- -- 52
2018-09-07 11:00:00 23.1 13 Nordeste 31 Este -- -- -- 53
2018-09-07 10:00:00 21.8 8 Nordeste 15 Este -- -- -- 57
2018-09-07 09:00:00 19 0 Calma 15 Norte -- -- -- 59
2018-09-07 08:00:00 17.4 0 Calma 8 Noroeste -- -- -- 60
2018-09-07 07:00:00 17.6 0 Calma 9 Noroeste -- -- -- 58
2018-09-07 06:00:00 18.9 4 Noroeste 12 Norte -- -- -- 56
2018-09-07 05:00:00 19.9 4 Norte 12 Norte -- -- -- 60
2018-09-07 04:00:00 20.4 4 Nordeste 8 Noroeste -- -- -- 57
2018-09-07 03:00:00 21.5 3 Norte 10 Norte -- -- -- 49
2018-09-07 02:00:00 21.9 4 Norte 13 Noroeste -- -- -- 48
2018-09-07 01:00:00 22.5 2 Norte 10 Noroeste -- -- -- 48
2018-09-07 00:00:00 22.6 4 Norte 12 Noroeste -- -- -- 49
2018-09-06 23:00:00 22.8 0 Calma 8 Norte -- -- -- 50
2018-09-06 22:00:00 22.5 3 Norte 18 Este -- -- -- 53
2018-09-06 21:00:00 22.8 7 Nordeste 21 Este -- -- -- 50
2018-09-06 20:00:00 24.7 6 Nordeste 27 Este -- -- -- 42
2018-09-06 19:00:00 26 11 Nordeste 26 Nordeste -- -- -- 39
2018-09-06 18:00:00 27 11 Nordeste 25 Nordeste -- -- -- 38
2018-09-06 17:00:00 27.6 9 Nordeste 26 Nordeste -- -- -- 35
2018-09-06 16:00:00 28.5 10 Nordeste 30 Nordeste -- -- -- 31
2018-09-06 15:00:00 29.8 5 Nordeste 15 Nordeste -- -- -- 28
2018-09-06 14:00:00 28.6 3 Norte 14 Norte -- -- -- 28
2018-09-06 13:00:00 27.7 6 Norte 17 Noroeste -- -- -- 33
2018-09-06 12:00:00 26.6 5 Norte 16 Noroeste -- -- -- 41
2018-09-06 11:00:00 25 6 Norte 17 Noroeste -- -- -- 46
2018-09-06 10:00:00 22.4 5 Norte 14 Norte -- -- -- 53
2018-09-06 09:00:00 19.4 5 Noroeste 16 Noroeste -- -- -- 57
2018-09-06 08:00:00 16.8 6 Noroeste 17 Noroeste -- -- -- 64
2018-09-06 07:00:00 17.1 8 Noroeste 17 Noroeste -- -- -- 62
2018-09-06 06:00:00 17.6 7 Noroeste 12 Norte -- -- -- 63
2018-09-06 05:00:00 18.1 3 Norte 14 Noroeste -- -- -- 60
2018-09-06 04:00:00 18.8 3 Norte 19 Noroeste -- -- -- 58
2018-09-06 03:00:00 20.2 6 Norte 17 Noroeste -- -- -- 53
2018-09-06 02:00:00 20.9 7 Norte 18 Noroeste -- -- -- 53
2018-09-06 01:00:00 21.5 3 Norte 11 Noroeste -- -- -- 53
2018-09-06 00:00:00 21.9 3 Noroeste 14 Noroeste -- -- -- 50
2018-09-05 23:00:00 23 6 Noroeste 16 Noroeste -- -- -- 46
2018-09-05 22:00:00 24.1 6 Norte 15 Noroeste -- -- -- 42
2018-09-05 21:00:00 25.4 8 Noroeste 17 Noroeste -- -- -- 37
2018-09-05 20:00:00 27 8 Noroeste 17 Noroeste -- -- -- 31
2018-09-05 19:00:00 29.1 6 Noroeste 17 Nordeste -- -- -- 28
2018-09-05 18:00:00 29.2 6 Nordeste 28 Nordeste -- -- -- 30
2018-09-05 17:00:00 28.8 12 Este 37 Este -- -- -- 31
2018-09-05 16:00:00 31 7 Este 24 Sudeste -- -- -- 24
2018-09-05 15:00:00 31.8 2 Sudeste 17 Nordeste -- -- -- 23
2018-09-05 14:00:00 30.2 6 Nordeste 17 Nordeste -- -- -- 24
2018-09-05 13:00:00 29 3 Norte 17 Nordeste -- -- -- 27
2018-09-05 12:00:00 27.5 3 Norte 10 Nordeste -- -- -- 37
2018-09-05 11:00:00 24.7 4 Nordeste 11 Nordeste -- -- -- 43
2018-09-05 10:00:00 22.3 2 Norte 11 Noroeste -- -- -- 50
2018-09-05 09:00:00 19.8 4 Noroeste 13 Noroeste -- -- -- 56
2018-09-05 08:00:00 17.8 5 Noroeste 13 Noroeste -- -- -- 58
2018-09-05 07:00:00 17.9 5 Noroeste 12 Norte -- -- -- 57
2018-09-05 06:00:00 18.1 4 Norte 14 Norte -- -- -- 57
2018-09-05 05:00:00 19 2 Noroeste 16 Noroeste -- -- -- 49
2018-09-05 04:00:00 19.5 4 Noroeste 15 Norte -- -- -- 42
2018-09-05 03:00:00 20.1 4 Noroeste 17 Norte -- -- -- 39
2018-09-05 02:00:00 21.1 5 Noroeste 15 Noroeste -- -- -- 32
2018-09-05 01:00:00 21.2 4 Noroeste 14 Norte -- -- -- 31
2018-09-05 00:00:00 22.6 3 Noroeste 12 Noroeste -- -- -- 32
2018-09-04 23:00:00 23.8 4 Noroeste 13 Noroeste -- -- -- 31
2018-09-04 22:00:00 24.9 4 Noroeste 22 Noroeste -- -- -- 32
2018-09-04 21:00:00 26.4 12 Noroeste 35 Noroeste -- -- -- 30
2018-09-04 20:00:00 27.8 19 Noroeste 39 Noroeste -- -- -- 28
2018-09-04 19:00:00 29.4 14 Noroeste 38 Noroeste -- -- -- 27
2018-09-04 18:00:00 30.2 14 Norte 36 Noroeste -- -- -- 27
2018-09-04 17:00:00 31.1 16 Noroeste 37 Noroeste -- -- -- 28
2018-09-04 16:00:00 31.8 14 Noroeste 36 Noroeste -- -- -- 27
2018-09-04 15:00:00 31.9 5 Nordeste 28 Nordeste -- -- -- 30
2018-09-04 14:00:00 31 10 Nordeste 27 Este -- -- -- 26
2018-09-04 13:00:00 28.8 11 Nordeste 30 Este -- -- -- 42
2018-09-04 12:00:00 25.6 13 Nordeste 29 Nordeste -- -- -- 53
2018-09-04 11:00:00 24.3 8 Nordeste 18 Este -- -- -- 55
2018-09-04 10:00:00 23.4 2 Nordeste 9 Nordeste -- -- -- 61
2018-09-04 09:00:00 20 2 Noroeste 11 Noroeste -- -- -- 74
2018-09-04 08:00:00 17.7 3 Noroeste 12 Noroeste -- -- -- 86
2018-09-04 07:00:00 19 3 Noroeste 9 Norte -- -- -- 81
2018-09-04 06:00:00 18.9 3 Norte 9 Noroeste -- -- -- 79
2018-09-04 05:00:00 19.6 3 Norte 9 Oeste -- -- -- 80
2018-09-04 04:00:00 19.6 2 Norte 8 Oeste -- -- -- 84
2018-09-04 03:00:00 20.4 2 Noroeste 10 Noroeste -- -- -- 81
2018-09-04 02:00:00 20.4 4 Nordeste 11 Este -- -- -- 86
2018-09-04 01:00:00 20.1 0 Calma 12 Noroeste -- -- -- 85
2018-09-04 00:00:00 20.6 2 Norte 8 Noroeste -- -- -- 85
2018-09-03 23:00:00 20.8 4 Este 17 Nordeste -- -- -- 85
2018-09-03 22:00:00 21.2 9 Nordeste 27 Este -- -- -- 82
2018-09-03 21:00:00 22.6 12 Nordeste 28 Nordeste -- -- -- 72
2018-09-03 20:00:00 25.4 13 Nordeste 30 Nordeste -- -- -- 56
2018-09-03 19:00:00 28.9 12 Nordeste 23 Este -- -- -- 42
2018-09-03 18:00:00 32.1 5 Noroeste 33 Noroeste -- -- -- 33
2018-09-03 17:00:00 31.6 13 Norte 33 Este -- -- -- 38
2018-09-03 16:00:00 30.6 15 Nordeste 38 Este -- -- -- 45
2018-09-03 15:00:00 29.9 20 Nordeste 39 Nordeste -- -- -- 42
2018-09-03 14:00:00 29.1 19 Nordeste 44 Nordeste -- -- -- 45
2018-09-03 13:00:00 27.3 14 Nordeste 30 Este -- -- -- 54
2018-09-03 12:00:00 26.7 13 Nordeste 28 Nordeste -- -- -- 51
2018-09-03 11:00:00 30 3 Norte 10 Norte -- -- -- 37
2018-09-03 10:00:00 27.1 5 Norte 12 Norte -- -- -- 43
2018-09-03 09:00:00 22.8 2 Oeste 9 Noroeste -- -- -- 53
2018-09-03 08:00:00 21.5 3 Noroeste 11 Noroeste -- -- -- 54
2018-09-03 07:00:00 21.4 0 Calma 12 Noroeste -- -- -- 53
2018-09-03 06:00:00 21.4 0 Calma 10 Oeste -- -- -- 56
2018-09-03 05:00:00 21.5 2 Norte 10 Noroeste -- -- -- 59
2018-09-03 04:00:00 22.9 2 Oeste 11 Oeste -- -- -- 57
2018-09-03 03:00:00 22.2 4 Noroeste 13 Norte -- -- -- 69
2018-09-03 02:00:00 22.4 5 Noroeste 11 Noroeste -- -- -- 72
2018-09-03 01:00:00 22.5 0 Calma 12 Norte -- -- -- 77
2018-09-03 00:00:00 23 6 Norte 14 Este -- -- -- 75
2018-09-02 23:00:00 24.8 0 Calma 7 Nordeste -- -- -- 51
2018-09-02 22:00:00 25.7 3 Norte 13 Noroeste -- -- -- 46
2018-09-02 21:00:00 26.9 5 Nordeste 20 Este -- -- -- 42
2018-09-02 20:00:00 28.4 8 Nordeste 24 Este -- -- -- 38
2018-09-02 19:00:00 29.6 11 Este 24 Este -- -- -- 37
2018-09-02 18:00:00 30.1 12 Nordeste 30 Nordeste -- -- -- 37
2018-09-02 17:00:00 30.2 17 Este 33 Este -- -- -- 38
2018-09-02 16:00:00 29.9 13 Nordeste 34 Este -- -- -- 36
2018-09-02 15:00:00 29.5 13 Nordeste 31 Este -- -- -- 35
2018-09-02 14:00:00 31 13 Nordeste 27 Este -- -- -- 31
2018-09-02 13:00:00 29.6 12 Nordeste 24 Este -- -- -- 35
2018-09-02 12:00:00 29 11 Nordeste 22 Este -- -- -- 35
2018-09-02 11:00:00 27 8 Nordeste 19 Nordeste -- -- -- 39
2018-09-02 10:00:00 25.1 0 Calma 6 Norte -- -- -- 53
2018-09-02 09:00:00 19.4 3 Noroeste 7 Oeste -- -- -- 69
2018-09-02 08:00:00 18.7 0 Calma 6 Norte -- -- -- 71
2018-09-02 07:00:00 19.4 0 Calma 4 Norte -- -- -- 69
2018-09-02 06:00:00 19.3 0 Calma 5 Nordeste -- -- -- 66
2018-09-02 05:00:00 19.4 0 Calma 5 Noroeste -- -- -- 68
2018-09-02 04:00:00 20.3 3 Noroeste 8 Noroeste -- -- -- 68
2018-09-02 03:00:00 21 2 Noroeste 10 Norte -- -- -- 65
2018-09-02 02:00:00 21.6 0 Calma 6 Este -- -- -- 71
2018-09-02 01:00:00 21.9 0 Calma 5 Norte -- -- -- 67
2018-09-02 00:00:00 22.9 0 Calma 6 Norte -- -- -- 61
2018-09-01 23:00:00 23.6 3 Nordeste 13 Nordeste -- -- -- 64
2018-09-01 22:00:00 24.2 7 Nordeste 21 Nordeste -- -- -- 59
2018-09-01 21:00:00 26 10 Este 26 Este -- -- -- 49
2018-09-01 20:00:00 27.6 10 Nordeste 35 Este -- -- -- 44
2018-09-01 19:00:00 29 14 Nordeste 35 Este -- -- -- 39
2018-09-01 18:00:00 29.8 17 Nordeste 40 Nordeste -- -- -- 38
2018-09-01 17:00:00 29.6 16 Nordeste 35 Este -- -- -- 38
2018-09-01 16:00:00 30.5 17 Nordeste 37 Este -- -- -- 37
2018-09-01 15:00:00 30.7 16 Nordeste 40 Este -- -- -- 35
2018-09-01 14:00:00 29.9 19 Este 36 Este -- -- -- 35
2018-09-01 13:00:00 29.4 17 Nordeste 35 Nordeste -- -- -- 38
2018-09-01 12:00:00 28.7 17 Nordeste 35 Nordeste -- -- -- 37
2018-09-01 11:00:00 27 15 Este 28 Nordeste -- -- -- 42
2018-09-01 10:00:00 24.3 3 Nordeste 7 Nordeste -- -- -- 57
2018-09-01 09:00:00 21.4 0 Calma 4 Nordeste -- -- -- 61
2018-09-01 08:00:00 18.4 0 Calma 7 Noroeste -- -- -- 68
2018-09-01 07:00:00 18.9 0 Calma 6 Noroeste -- -- -- 66
2018-09-01 06:00:00 19.4 3 Nordeste 6 Nordeste -- -- -- 64
2018-09-01 05:00:00 19 0 Calma 5 Noroeste -- -- -- 59
2018-09-01 04:00:00 20.6 0 Calma 5 Norte -- -- -- 53
2018-09-01 03:00:00 20.7 0 Calma 5 Oeste -- -- -- 55
2018-09-01 02:00:00 21.4 0 Calma 10 Norte -- -- -- 55
2018-09-01 01:00:00 22.7 4 Noroeste 11 Norte -- -- -- 52
2018-09-01 00:00:00 23 0 Calma 8 Norte -- -- -- 56
2018-08-31 23:00:00 23.7 2 Nordeste 15 Este -- -- -- 53
2018-08-31 22:00:00 25 7 Nordeste 18 Nordeste -- -- -- 48
2018-08-31 21:00:00 26 11 Este 23 Este -- -- -- 44
2018-08-31 20:00:00 27.3 15 Este 29 Este -- -- -- 41
2018-08-31 19:00:00 28.8 12 Nordeste 32 Nordeste -- -- -- 39
2018-08-31 18:00:00 28.6 13 Nordeste 32 Este -- -- -- 40
2018-08-31 17:00:00 29 13 Nordeste 35 Este -- -- -- 39
2018-08-31 16:00:00 29.8 14 Nordeste 34 Este -- -- -- 37
2018-08-31 15:00:00 29.9 14 Nordeste 31 Este -- -- -- 35
2018-08-31 14:00:00 30 15 Nordeste 31 Este -- -- -- 33
2018-08-31 13:00:00 29.4 15 Nordeste 37 Nordeste -- -- -- 35
2018-08-31 12:00:00 28.1 17 Este 30 Este -- -- -- 37
2018-08-31 11:00:00 26.4 13 Nordeste 26 Nordeste -- -- -- 43
2018-08-31 10:00:00 24.1 2 Nordeste 6 Noroeste -- -- -- 53
2018-08-31 09:00:00 19.7 3 Norte 8 Noroeste -- -- -- 66
2018-08-31 08:00:00 17.8 5 Noroeste 10 Noroeste -- -- -- 72
2018-08-31 07:00:00 17.6 5 Noroeste 8 Noroeste -- -- -- 79
2018-08-31 06:00:00 18.6 2 Norte 8 Oeste -- -- -- 73
2018-08-31 05:00:00 18.7 4 Oeste 9 Oeste -- -- -- 81
2018-08-31 04:00:00 19.3 3 Noroeste 10 Noroeste -- -- -- 67
2018-08-31 03:00:00 19.6 2 Norte 8 Noroeste -- -- -- 68
2018-08-31 02:00:00 20.2 2 Nordeste 8 Noroeste -- -- -- 80
2018-08-31 01:00:00 20.8 3 Norte 9 Noroeste -- -- -- 65
2018-08-31 00:00:00 21.3 0 Calma 9 Nordeste -- -- -- 71
2018-08-30 23:00:00 21.9 5 Nordeste 14 Nordeste -- -- -- 74
2018-08-30 22:00:00 22.7 7 Nordeste 19 Nordeste -- -- -- 66
2018-08-30 21:00:00 24.2 10 Nordeste 24 Este -- -- -- 55
2018-08-30 20:00:00 25.7 9 Nordeste 25 Este -- -- -- 48
2018-08-30 19:00:00 26.5 11 Nordeste 26 Nordeste -- -- -- 43
2018-08-30 18:00:00 28.1 15 Nordeste 33 Nordeste -- -- -- 42
2018-08-30 17:00:00 28.2 15 Nordeste 40 Nordeste -- -- -- 42
2018-08-30 16:00:00 29 17 Nordeste 35 Nordeste -- -- -- 43
2018-08-30 15:00:00 29.1 16 Nordeste 34 Este -- -- -- 44
2018-08-30 14:00:00 28.6 16 Nordeste 33 Este -- -- -- 47
2018-08-30 13:00:00 27 16 Este 35 Este -- -- -- 52
2018-08-30 12:00:00 25.9 11 Nordeste 21 Este -- -- -- 53
2018-08-30 11:00:00 24 8 Nordeste 18 Este -- -- -- 64
2018-08-30 10:00:00 22.8 5 Nordeste 14 Este -- -- -- 68
2018-08-30 09:00:00 20.9 3 Nordeste 9 Nordeste -- -- -- 73
2018-08-30 08:00:00 18.3 3 Nordeste 8 Este -- -- -- 75
2018-08-30 07:00:00 20.4 3 Norte 12 Noroeste -- -- -- 69
2018-08-30 06:00:00 19.2 6 Noroeste 15 Norte -- -- -- 69
2018-08-30 05:00:00 19.6 3 Noroeste 9 Noroeste -- -- -- 70
2018-08-30 04:00:00 19.6 0 Calma 5 Noroeste -- -- -- 68
2018-08-30 03:00:00 20.2 0 Calma 6 Noroeste -- -- -- 66
2018-08-30 02:00:00 20.7 3 Nordeste 7 Este -- -- -- 61
2018-08-30 01:00:00 21.6 0 Calma 8 Nordeste -- -- -- 57
2018-08-30 00:00:00 22.8 3 Noroeste 7 Noroeste -- -- -- 54
2018-08-29 23:00:00 23.1 0 Calma 12 Nordeste -- -- -- 53
2018-08-29 22:00:00 23.8 8 Este 18 Este -- -- -- 50
2018-08-29 21:00:00 24.8 9 Nordeste 22 Este -- -- -- 49
2018-08-29 20:00:00 26.5 12 Nordeste 24 Este -- -- -- 48
2018-08-29 19:00:00 27.9 10 Nordeste 30 Este -- -- -- 46
2018-08-29 18:00:00 26.6 17 Este 35 Este -- -- -- 50
2018-08-29 17:00:00 26.9 14 Nordeste 37 Sudeste -- -- -- 50
2018-08-29 16:00:00 28.2 17 Este 35 Este -- -- -- 46
2018-08-29 15:00:00 29.1 12 Este 33 Este -- -- -- 39
2018-08-29 14:00:00 28.9 15 Este 35 Este -- -- -- 39
2018-08-29 13:00:00 29 13 Este 29 Este -- -- -- 38
2018-08-29 12:00:00 28.7 10 Este 28 Sudeste -- -- -- 38
2018-08-29 11:00:00 27.5 5 Nordeste 18 Nordeste -- -- -- 44
2018-08-29 10:00:00 26.2 3 Nordeste 12 Norte -- -- -- 50
2018-08-29 09:00:00 23.8 5 Noroeste 14 Noroeste -- -- -- 54
2018-08-29 08:00:00 21.4 4 Noroeste 17 Sur -- -- -- 57
2018-08-29 07:00:00 21.2 6 Noroeste 15 Noroeste -- -- -- 59
2018-08-29 06:00:00 20.5 4 Norte 13 Oeste -- -- -- 60
2018-08-29 05:00:00 22 6 Norte 16 Noroeste -- -- -- 56
2018-08-29 04:00:00 21.4 4 Norte 10 Norte -- -- -- 61
2018-08-29 03:00:00 21.8 2 Noroeste 8 Noroeste -- -- -- 57
2018-08-29 02:00:00 21.8 3 Noroeste 8 Noroeste -- -- -- 60
2018-08-29 01:00:00 22.8 0 Calma 7 Noroeste -- -- -- 57
2018-08-29 00:00:00 22.5 0 Calma 15 Este -- -- -- 66
2018-08-28 23:00:00 23.9 9 Este 21 Este -- -- -- 57
2018-08-28 22:00:00 25.3 12 Nordeste 29 Este -- -- -- 45
2018-08-28 21:00:00 26.7 18 Nordeste 35 Este -- -- -- 38
2018-08-28 20:00:00 28.6 16 Este 30 Este -- -- -- 32
2018-08-28 19:00:00 30.5 15 Nordeste 33 Este -- -- -- 31
2018-08-28 18:00:00 31.4 18 Este 40 Norte -- -- -- 29
2018-08-28 17:00:00 31.7 18 Este 41 Este -- -- -- 29
2018-08-28 16:00:00 32.6 15 Nordeste 37 Este -- -- -- 27
2018-08-28 15:00:00 33.2 17 Nordeste 39 Nordeste -- -- -- 27
2018-08-28 14:00:00 32.2 17 Nordeste 42 Nordeste -- -- -- 28
2018-08-28 13:00:00 32.5 14 Nordeste 38 Nordeste -- -- -- 28
2018-08-28 12:00:00 30.5 16 Este 36 Nordeste -- -- -- 31
2018-08-28 11:00:00 28.5 15 Nordeste 31 Este -- -- -- 35
2018-08-28 10:00:00 26 15 Este 28 Este -- -- -- 42
2018-08-28 09:00:00 23.8 13 Este 26 Este -- -- -- 52
2018-08-28 08:00:00 21.9 2 Norte 11 Oeste -- -- -- 57
2018-08-28 07:00:00 22.9 3 Noroeste 11 Noroeste -- -- -- 49
2018-08-28 06:00:00 23.2 4 Nordeste 19 Nordeste -- -- -- 57
2018-08-28 05:00:00 22.8 9 Nordeste 31 Nordeste -- -- -- 63
2018-08-28 04:00:00 24.5 8 Nordeste 24 Nordeste -- -- -- 54
2018-08-28 03:00:00 22.8 13 Nordeste 30 Este -- -- -- 68
2018-08-28 02:00:00 23.7 3 Norte 12 Este -- -- -- 63
2018-08-28 01:00:00 24.2 9 Nordeste 26 Nordeste -- -- -- 56
2018-08-28 00:00:00 25.1 7 Nordeste 14 Nordeste -- -- -- 57
2018-08-27 23:00:00 26 3 Nordeste 12 Nordeste -- -- -- 51
2018-08-27 22:00:00 26.5 3 Nordeste 14 Nordeste -- -- -- 48
2018-08-27 21:00:00 27.8 7 Nordeste 24 Este -- -- -- 45
2018-08-27 20:00:00 29.1 13 Nordeste 29 Este -- -- -- 41
2018-08-27 19:00:00 31.2 15 Nordeste 36 Este -- -- -- 31
2018-08-27 18:00:00 31.8 14 Nordeste 34 Este -- -- -- 28
2018-08-27 17:00:00 32.6 13 Nordeste 42 Este -- -- -- 27
2018-08-27 16:00:00 32.4 19 Nordeste 44 Nordeste -- -- -- 30
2018-08-27 15:00:00 32.5 20 Nordeste 47 Nordeste -- -- -- 31
2018-08-27 14:00:00 31.4 21 Nordeste 41 Nordeste -- -- -- 35
2018-08-27 13:00:00 30.3 18 Nordeste 41 Este -- -- -- 39
2018-08-27 12:00:00 28.7 19 Nordeste 41 Este -- -- -- 45
2018-08-27 11:00:00 27 15 Nordeste 35 Nordeste -- -- -- 52
2018-08-27 10:00:00 24 14 Nordeste 26 Este -- -- -- 68
2018-08-27 09:00:00 20.8 5 Nordeste 10 Nordeste -- -- -- 64
2018-08-27 08:00:00 18.3 0 Calma 4 Nordeste -- -- -- 60
2018-08-27 07:00:00 18.7 0 Calma 5 Norte -- -- -- 58
2018-08-27 06:00:00 19.1 0 Calma 9 Oeste -- -- -- 56
2018-08-27 05:00:00 20.6 6 Oeste 9 Noroeste -- -- -- 59
2018-08-27 04:00:00 19.9 0 Calma 3 Nordeste -- -- -- 58
2018-08-27 03:00:00 21.2 0 Calma 8 Oeste -- -- -- 60
2018-08-27 02:00:00 21.8 5 Oeste 9 Noroeste -- -- -- 63
2018-08-27 01:00:00 22.3 0 Calma 7 Noroeste -- -- -- 61
2018-08-27 00:00:00 23 0 Calma 7 Oeste -- -- -- 68
2018-08-26 23:00:00 24 3 Noroeste 7 Este -- -- -- 62
2018-08-26 22:00:00 24.6 4 Este 13 Nordeste -- -- -- 60
2018-08-26 21:00:00 25.5 6 Nordeste 21 Este -- -- -- 55
2018-08-26 20:00:00 26.5 13 Este 33 Este -- -- -- 50
2018-08-26 19:00:00 28.3 16 Nordeste 36 Nordeste -- -- -- 45
2018-08-26 18:00:00 29.6 15 Nordeste 36 Nordeste -- -- -- 41
2018-08-26 17:00:00 29.6 18 Nordeste 41 Este -- -- -- 40
2018-08-26 16:00:00 31.4 14 Nordeste 32 Este -- -- -- 36
2018-08-26 15:00:00 31.4 14 Nordeste 31 Este -- -- -- 34
2018-08-26 14:00:00 30.8 15 Nordeste 31 Este -- -- -- 35
2018-08-26 13:00:00 29.9 14 Nordeste 27 Nordeste -- -- -- 36
2018-08-26 12:00:00 28.5 9 Nordeste 21 Nordeste -- -- -- 36
2018-08-26 11:00:00 28.1 4 Nordeste 11 Este -- -- -- 37
2018-08-26 10:00:00 24.8 2 Nordeste 8 Nordeste -- -- -- 42
2018-08-26 09:00:00 21.9 0 Calma 8 Oeste -- -- -- 43
2018-08-26 08:00:00 19.8 0 Calma 4 Noroeste -- -- -- 44
2018-08-26 07:00:00 20.5 0 Calma 9 Este -- -- -- 43
2018-08-26 06:00:00 21.6 0 Calma 11 Oeste -- -- -- 41
2018-08-26 05:00:00 23.3 2 Noroeste 16 Noroeste -- -- -- 38
2018-08-26 04:00:00 24.6 5 Noroeste 17 Norte -- -- -- 36
2018-08-26 03:00:00 24.8 4 Noroeste 15 Noroeste -- -- -- 37
2018-08-26 02:00:00 25.2 4 Noroeste 12 Norte -- -- -- 36
2018-08-26 01:00:00 25.3 3 Noroeste 13 Oeste -- -- -- 37
2018-08-26 00:00:00 26 4 Noroeste 9 Oeste -- -- -- 36
2018-08-25 23:00:00 26 3 Noroeste 10 Norte -- -- -- 36
2018-08-25 22:00:00 26.4 2 Noroeste 11 Noroeste -- -- -- 35
2018-08-25 21:00:00 27.4 4 Nordeste 18 Nordeste -- -- -- 35
2018-08-25 20:00:00 28.6 9 Nordeste 20 Este -- -- -- 34
2018-08-25 19:00:00 30 10 Nordeste 28 Nordeste -- -- -- 31
2018-08-25 18:00:00 30.9 10 Nordeste 28 Este -- -- -- 31
2018-08-25 17:00:00 31.1 13 Nordeste 30 Nordeste -- -- -- 32
2018-08-25 16:00:00 29.9 14 Nordeste 33 Nordeste -- -- -- 33
2018-08-25 15:00:00 33.8 11 Noroeste 29 Norte -- -- -- 27
2018-08-25 14:00:00 32.7 8 Noroeste 20 Noroeste -- -- -- 27
2018-08-25 13:00:00 31.7 5 Noroeste 13 Noroeste -- -- -- 29
2018-08-25 12:00:00 30.9 4 Norte 10 Norte -- -- -- 31
2018-08-25 11:00:00 30.5 2 Norte 11 Norte -- -- -- 34
2018-08-25 10:00:00 28.7 3 Norte 10 Noroeste -- -- -- 37
2018-08-25 09:00:00 26.1 2 Norte 16 Noroeste -- -- -- 39
2018-08-25 08:00:00 22.6 3 Noroeste 12 Norte -- -- -- 42
2018-08-25 07:00:00 22.4 3 Noroeste 13 Noroeste -- -- -- 42
2018-08-25 06:00:00 23 4 Norte 16 Noroeste -- -- -- 42
2018-08-25 05:00:00 23.6 3 Noroeste 15 Oeste -- -- -- 42
2018-08-25 04:00:00 22.3 4 Noroeste 11 Noroeste -- -- -- 43
2018-08-25 03:00:00 22.5 2 Noroeste 12 Oeste -- -- -- 45
2018-08-25 02:00:00 23 3 Noroeste 9 Noroeste -- -- -- 45
2018-08-25 01:00:00 23.5 2 Noroeste 14 Noroeste -- -- -- 46
2018-08-25 00:00:00 23.8 3 Noroeste 13 Norte -- -- -- 45